createdAt,value
2023-04-08T00:00:52.780Z,0.47
2023-04-08T00:01:54.772Z,0.45
2023-04-08T00:02:56.713Z,0.40
2023-04-08T00:03:58.768Z,0.50
2023-04-08T00:05:00.743Z,0.40
2023-04-08T00:06:03.952Z,0.40
2023-04-08T00:07:06.127Z,0.50
2023-04-08T00:08:08.483Z,0.50
2023-04-08T00:09:10.498Z,0.52
2023-04-08T00:10:12.313Z,0.47
2023-04-08T00:11:14.147Z,0.40
2023-04-08T00:12:16.165Z,0.30
2023-04-08T00:13:18.020Z,0.32
2023-04-08T00:14:19.815Z,0.40
2023-04-08T00:15:21.698Z,0.63
2023-04-08T00:16:23.547Z,0.47
2023-04-08T00:17:25.426Z,0.30
2023-04-08T00:18:27.918Z,0.52
2023-04-08T00:19:29.820Z,0.65
2023-04-08T00:20:31.573Z,0.70
2023-04-08T00:21:33.411Z,0.38
2023-04-08T00:22:36.624Z,0.40
2023-04-08T00:23:38.394Z,0.50
2023-04-08T00:24:40.936Z,0.40
2023-04-08T00:25:42.801Z,0.52
2023-04-08T00:26:44.967Z,0.50
2023-04-08T00:27:46.879Z,0.45
2023-04-08T00:28:49.241Z,0.60
2023-04-08T00:29:51.876Z,0.40
2023-04-08T00:30:53.850Z,0.50
2023-04-08T00:31:55.797Z,0.40
2023-04-08T00:32:58.298Z,0.60
2023-04-08T00:34:00.263Z,0.50
2023-04-08T00:35:02.801Z,0.43
2023-04-08T00:36:04.827Z,0.70
2023-04-08T00:37:06.765Z,0.35
2023-04-08T00:38:08.625Z,0.70
2023-04-08T00:39:10.419Z,0.50
2023-04-08T00:40:12.812Z,0.50
2023-04-08T00:41:14.794Z,0.52
2023-04-08T00:42:17.269Z,0.60
2023-04-08T00:43:21.296Z,0.52
2023-04-08T00:44:23.186Z,0.40
2023-04-08T00:45:25.051Z,0.30
2023-04-08T00:46:27.130Z,0.30
2023-04-08T00:47:29.037Z,0.45
2023-04-08T00:48:31.565Z,0.50
2023-04-08T00:49:33.528Z,0.65
2023-04-08T00:50:35.547Z,0.55
2023-04-08T00:51:37.462Z,0.40
2023-04-08T00:52:39.459Z,0.60
2023-04-08T00:53:41.423Z,0.35
2023-04-08T00:54:43.254Z,0.50
2023-04-08T00:55:45.509Z,0.40
2023-04-08T00:56:47.574Z,0.40
2023-04-08T00:57:49.569Z,0.40
2023-04-08T00:58:55.164Z,0.60
2023-04-08T00:59:57.129Z,0.40
2023-04-08T01:01:05.831Z,0.40
2023-04-08T01:02:34.644Z,0.43
2023-04-08T01:04:07.867Z,0.50
2023-04-08T01:05:16.217Z,0.40
2023-04-08T01:06:34.440Z,0.40
2023-04-08T01:07:52.840Z,0.50
2023-04-08T01:08:54.709Z,0.50
2023-04-08T01:09:59.316Z,0.80
2023-04-08T01:11:03.687Z,0.50
2023-04-08T01:12:09.356Z,0.73
2023-04-08T01:13:14.545Z,0.73
2023-04-08T01:14:25.304Z,0.70
2023-04-08T01:15:29.159Z,0.60
2023-04-08T01:16:31.057Z,0.60
2023-04-08T01:17:34.438Z,0.80
2023-04-08T01:18:37.313Z,0.50
2023-04-08T01:19:42.350Z,0.68
2023-04-08T01:20:45.335Z,0.60
2023-04-08T01:21:48.519Z,0.63
2023-04-08T01:23:21.096Z,0.57
2023-04-08T01:24:36.673Z,0.60
2023-04-08T01:25:39.572Z,0.90
2023-04-08T01:26:42.173Z,0.65
2023-04-08T01:27:44.698Z,0.50
2023-04-08T01:28:46.757Z,0.65
2023-04-08T01:29:49.541Z,0.50
2023-04-08T01:30:52.336Z,0.52
2023-04-08T01:31:56.282Z,0.60
2023-04-08T01:33:01.929Z,0.55
2023-04-08T01:34:06.513Z,0.50
2023-04-08T01:35:09.909Z,0.50
2023-04-08T01:36:12.271Z,0.40
2023-04-08T01:37:15.841Z,0.50
2023-04-08T01:38:20.501Z,0.47
2023-04-08T01:39:25.536Z,0.55
2023-04-08T01:40:27.554Z,0.35
2023-04-08T01:41:30.449Z,0.45
2023-04-08T01:42:35.406Z,0.50
2023-04-08T01:43:40.316Z,0.60
2023-04-08T01:44:42.773Z,0.50
2023-04-08T01:45:47.129Z,0.40
2023-04-08T01:46:49.828Z,0.30
2023-04-08T01:47:53.232Z,0.32
2023-04-08T01:48:55.919Z,0.40
2023-04-08T01:49:59.898Z,0.40
2023-04-08T01:51:03.684Z,0.60
2023-04-08T01:52:06.752Z,0.50
2023-04-08T01:53:10.204Z,0.30
2023-04-08T01:54:12.049Z,0.50
2023-04-08T01:55:14.068Z,0.40
2023-04-08T01:56:16.663Z,0.50
2023-04-08T01:57:24.371Z,0.43
2023-04-08T01:58:31.440Z,0.50
2023-04-08T01:59:36.673Z,0.40
2023-04-08T02:00:40.970Z,0.40
2023-04-08T02:01:45.568Z,0.40
2023-04-08T02:02:48.619Z,0.50
2023-04-08T02:03:52.315Z,0.45
2023-04-08T02:04:55.188Z,0.60
2023-04-08T02:05:57.002Z,0.70
2023-04-08T02:06:59.284Z,0.50
2023-04-08T02:08:01.428Z,0.50
2023-04-08T02:09:04.287Z,0.57
2023-04-08T02:10:06.693Z,0.40
2023-04-08T02:11:08.502Z,0.40
2023-04-08T02:12:10.865Z,0.30
2023-04-08T02:13:12.751Z,0.63
2023-04-08T02:14:14.567Z,0.57
2023-04-08T02:15:16.955Z,0.65
2023-04-08T02:16:34.281Z,0.70
2023-04-08T02:18:00.868Z,0.50
2023-04-08T02:19:10.076Z,0.38
2023-04-08T02:20:18.764Z,0.60
2023-04-08T02:21:27.112Z,0.40
2023-04-08T02:22:38.155Z,0.43
2023-04-08T02:23:41.526Z,0.63
2023-04-08T02:24:44.644Z,0.55
2023-04-08T02:25:48.290Z,0.50
2023-04-08T02:26:54.358Z,0.43
2023-04-08T02:27:57.384Z,0.45
2023-04-08T02:29:00.392Z,0.40
2023-04-08T02:30:05.885Z,0.50
2023-04-08T02:31:13.692Z,0.40
2023-04-08T02:32:20.880Z,0.40
2023-04-08T02:33:24.013Z,0.50
2023-04-08T02:34:28.010Z,0.40
2023-04-08T02:35:31.196Z,0.35
2023-04-08T02:36:34.262Z,0.50
2023-04-08T02:37:38.934Z,0.60
2023-04-08T02:38:40.809Z,0.57
2023-04-08T02:39:43.703Z,0.63
2023-04-08T02:40:46.579Z,0.40
2023-04-08T02:41:48.380Z,0.30
2023-04-08T02:42:50.518Z,0.30
2023-04-08T02:43:55.560Z,0.50
2023-04-08T02:44:57.690Z,0.52
2023-04-08T02:46:03.571Z,0.55
2023-04-08T02:47:05.791Z,0.47
2023-04-08T02:48:10.634Z,0.50
2023-04-08T02:49:12.421Z,0.40
2023-04-08T02:50:14.495Z,0.40
2023-04-08T02:51:16.502Z,0.40
2023-04-08T02:52:18.741Z,0.50
2023-04-08T02:53:20.885Z,0.25
2023-04-08T02:54:22.745Z,0.43
2023-04-08T02:55:24.579Z,0.40
2023-04-08T02:56:26.536Z,0.20
2023-04-08T02:57:28.322Z,0.40
2023-04-08T02:58:30.557Z,0.30
2023-04-08T02:59:32.336Z,0.40
2023-04-08T03:00:34.190Z,0.50
2023-04-08T03:01:36.159Z,0.25
2023-04-08T03:02:38.104Z,0.40
2023-04-08T03:03:40.063Z,0.40
2023-04-08T03:04:41.965Z,0.43
2023-04-08T03:05:43.778Z,0.35
2023-04-08T03:06:45.843Z,0.30
2023-04-08T03:07:47.668Z,0.30
2023-04-08T03:08:49.741Z,0.40
2023-04-08T03:09:51.902Z,0.50
2023-04-08T03:10:53.712Z,0.50
2023-04-08T03:11:55.569Z,0.40
2023-04-08T03:12:57.424Z,0.40
2023-04-08T03:13:59.430Z,0.35
2023-04-08T03:15:01.919Z,0.40
2023-04-08T03:16:03.835Z,0.40
2023-04-08T03:17:05.626Z,0.32
2023-04-08T03:18:07.673Z,0.38
2023-04-08T03:19:09.491Z,0.30
2023-04-08T03:20:11.912Z,0.38
2023-04-08T03:21:13.691Z,0.30
2023-04-08T03:22:15.603Z,0.60
2023-04-08T03:23:17.412Z,0.40
2023-04-08T03:24:19.286Z,0.30
2023-04-08T03:25:21.149Z,0.40
2023-04-08T03:26:22.946Z,0.50
2023-04-08T03:27:25.008Z,0.40
2023-04-08T03:28:26.787Z,0.40
2023-04-08T03:29:28.751Z,0.30
2023-04-08T03:30:31.240Z,0.45
2023-04-08T03:31:33.549Z,0.60
2023-04-08T03:32:35.451Z,0.38
2023-04-08T03:33:37.242Z,0.45
2023-04-08T03:34:39.192Z,0.30
2023-04-08T03:35:41.118Z,0.30
2023-04-08T03:36:43.086Z,0.50
2023-04-08T03:37:44.900Z,0.32
2023-04-08T03:38:46.707Z,0.43
2023-04-08T03:39:48.494Z,0.50
2023-04-08T03:40:50.809Z,0.63
2023-04-08T03:41:52.629Z,0.30
2023-04-08T03:42:54.433Z,0.50
2023-04-08T03:43:56.443Z,0.38
2023-04-08T03:44:58.666Z,0.50
2023-04-08T03:46:00.535Z,0.47
2023-04-08T03:47:02.323Z,0.20
2023-04-08T03:48:04.541Z,0.40
2023-04-08T03:49:07.446Z,0.50
2023-04-08T03:50:09.723Z,0.40
2023-04-08T03:51:11.533Z,0.68
2023-04-08T03:52:13.405Z,0.50
2023-04-08T03:53:15.299Z,0.30
2023-04-08T03:54:17.141Z,0.32
2023-04-08T03:55:19.025Z,0.40
2023-04-08T03:56:20.843Z,0.50
2023-04-08T03:57:22.654Z,0.43
2023-04-08T03:58:24.445Z,0.50
2023-04-08T03:59:26.388Z,0.30
2023-04-08T04:00:28.349Z,0.50
2023-04-08T04:01:32.389Z,0.35
2023-04-08T04:02:34.422Z,0.30
2023-04-08T04:03:36.559Z,0.55
2023-04-08T04:04:38.752Z,0.40
2023-04-08T04:05:41.238Z,0.40
2023-04-08T04:06:43.101Z,0.30
2023-04-08T04:07:44.926Z,0.30
2023-04-08T04:08:46.793Z,0.60
2023-04-08T04:09:48.742Z,0.50
2023-04-08T04:10:51.603Z,0.40
2023-04-08T04:11:53.422Z,0.28
2023-04-08T04:12:55.229Z,0.40
2023-04-08T04:13:57.087Z,0.30
2023-04-08T04:14:58.938Z,0.50
2023-04-08T04:16:00.786Z,0.40
2023-04-08T04:17:02.568Z,0.40
2023-04-08T04:18:04.387Z,0.75
2023-04-08T04:19:06.474Z,0.55
2023-04-08T04:20:08.767Z,0.80
2023-04-08T04:21:10.768Z,0.52
2023-04-08T04:22:12.614Z,0.57
2023-04-08T04:23:14.415Z,0.50
2023-04-08T04:24:16.307Z,0.47
2023-04-08T04:25:18.199Z,0.60
2023-04-08T04:26:19.988Z,0.70
2023-04-08T04:27:21.766Z,0.40
2023-04-08T04:28:23.588Z,0.60
2023-04-08T04:29:25.400Z,0.32
2023-04-08T04:30:27.818Z,0.38
2023-04-08T04:31:29.723Z,0.30
2023-04-08T04:32:31.547Z,0.40
2023-04-08T04:33:33.677Z,0.40
2023-04-08T04:34:35.729Z,0.40
2023-04-08T04:35:39.254Z,0.40
2023-04-08T04:36:41.541Z,0.47
2023-04-08T04:37:43.392Z,0.40
2023-04-08T04:38:46.852Z,0.40
2023-04-08T04:39:50.552Z,0.45
2023-04-08T04:40:52.323Z,0.57
2023-04-08T04:41:54.100Z,0.50
2023-04-08T04:42:55.923Z,0.50
2023-04-08T04:43:57.705Z,0.60
2023-04-08T04:44:59.859Z,0.65
2023-04-08T04:46:02.423Z,0.40
2023-04-08T04:47:04.429Z,0.47
2023-04-08T04:48:06.528Z,0.60
2023-04-08T04:49:08.415Z,0.50
2023-04-08T04:50:10.453Z,0.50
2023-04-08T04:51:12.307Z,0.65
2023-04-08T04:52:14.142Z,0.60
2023-04-08T04:53:15.989Z,0.30
2023-04-08T04:54:17.762Z,0.50
2023-04-08T04:55:19.787Z,0.50
2023-04-08T04:56:21.692Z,0.70
2023-04-08T04:57:23.524Z,0.50
2023-04-08T04:58:25.595Z,0.43
2023-04-08T04:59:27.691Z,0.43
2023-04-08T05:00:29.562Z,0.50
2023-04-08T05:01:31.457Z,0.40
2023-04-08T05:02:33.501Z,0.40
2023-04-08T05:03:35.431Z,0.70
2023-04-08T05:04:37.497Z,0.50
2023-04-08T05:05:39.612Z,0.68
2023-04-08T05:06:41.450Z,0.43
2023-04-08T05:07:43.261Z,0.40
2023-04-08T05:08:45.155Z,0.63
2023-04-08T05:09:46.919Z,0.40
2023-04-08T05:10:51.003Z,0.60
2023-04-08T05:11:52.842Z,0.52
2023-04-08T05:12:54.631Z,0.57
2023-04-08T05:13:56.444Z,0.60
2023-04-08T05:14:59.576Z,0.50
2023-04-08T05:16:01.529Z,0.47
2023-04-08T05:17:03.470Z,0.40
2023-04-08T05:18:05.769Z,0.30
2023-04-08T05:19:07.634Z,0.90
2023-04-08T05:20:09.876Z,0.30
2023-04-08T05:21:11.666Z,0.40
2023-04-08T05:22:13.616Z,0.40
2023-04-08T05:23:15.756Z,0.30
2023-04-08T05:24:17.653Z,0.40
2023-04-08T05:25:19.866Z,0.38
2023-04-08T05:26:21.893Z,0.40
2023-04-08T05:27:23.759Z,0.35
2023-04-08T05:28:25.614Z,0.30
2023-04-08T05:29:27.688Z,0.40
2023-04-08T05:30:29.515Z,1.15
2023-04-08T05:31:31.381Z,0.90
2023-04-08T05:32:33.356Z,0.63
2023-04-08T05:33:35.169Z,0.55
2023-04-08T05:34:36.968Z,0.50
2023-04-08T05:35:38.733Z,0.40
2023-04-08T05:36:40.945Z,0.52
2023-04-08T05:37:42.805Z,0.68
2023-04-08T05:38:44.619Z,0.60
2023-04-08T05:39:46.408Z,0.50
2023-04-08T05:40:48.383Z,0.60
2023-04-08T05:41:50.234Z,0.40
2023-04-08T05:42:52.028Z,0.30
2023-04-08T05:43:53.928Z,0.68
2023-04-08T05:44:56.017Z,0.40
2023-04-08T05:45:57.791Z,0.60
2023-04-08T05:47:00.616Z,0.30
2023-04-08T05:48:02.529Z,0.40
2023-04-08T05:49:04.533Z,0.40
2023-04-08T05:50:07.046Z,0.50
2023-04-08T05:51:17.981Z,0.40
2023-04-08T05:52:19.908Z,0.30
2023-04-08T05:53:21.682Z,0.40
2023-04-08T05:54:23.511Z,0.70
2023-04-08T05:55:25.432Z,0.50
2023-04-08T05:56:27.352Z,0.50
2023-04-08T05:57:29.096Z,0.57
2023-04-08T05:58:30.890Z,0.60
2023-04-08T05:59:32.728Z,0.38
2023-04-08T06:00:34.528Z,0.40
2023-04-08T06:01:36.648Z,0.30
2023-04-08T06:02:39.263Z,0.73
2023-04-08T06:03:41.337Z,0.32
2023-04-08T06:04:43.433Z,0.50
2023-04-08T06:05:45.318Z,0.60
2023-04-08T06:06:47.079Z,0.60
2023-04-08T06:07:48.892Z,0.40
2023-04-08T06:08:51.065Z,0.40
2023-04-08T06:09:52.893Z,0.50
2023-04-08T06:10:54.669Z,0.60
2023-04-08T06:11:57.552Z,0.50
2023-04-08T06:12:59.442Z,0.50
2023-04-08T06:14:01.381Z,0.40
2023-04-08T06:15:04.554Z,0.40
2023-04-08T06:16:20.376Z,0.50
2023-04-08T06:17:23.145Z,0.20
2023-04-08T06:18:25.057Z,0.43
2023-04-08T06:19:26.842Z,0.52
2023-04-08T06:20:28.734Z,0.60
2023-04-08T06:21:30.596Z,0.50
2023-04-08T06:22:32.620Z,0.57
2023-04-08T06:23:34.616Z,0.55
2023-04-08T06:24:36.387Z,0.52
2023-04-08T06:25:38.414Z,0.40
2023-04-08T06:26:40.670Z,0.50
2023-04-08T06:27:42.523Z,0.43
2023-04-08T06:28:44.299Z,0.50
2023-04-08T06:29:46.260Z,0.50
2023-04-08T06:30:48.036Z,0.50
2023-04-08T06:31:50.744Z,0.40
2023-04-08T06:32:52.647Z,0.60
2023-04-08T06:33:55.952Z,0.73
2023-04-08T06:34:57.719Z,0.60
2023-04-08T06:36:06.856Z,0.75
2023-04-08T06:37:08.719Z,0.32
2023-04-08T06:38:10.494Z,0.68
2023-04-08T06:39:12.436Z,0.55
2023-04-08T06:40:14.268Z,0.75
2023-04-08T06:41:16.133Z,0.47
2023-04-08T06:42:17.936Z,0.40
2023-04-08T06:43:41.151Z,0.60
2023-04-08T06:44:43.000Z,0.63
2023-04-08T06:45:44.810Z,0.50
2023-04-08T06:46:46.836Z,0.73
2023-04-08T06:47:48.826Z,0.50
2023-04-08T06:48:50.852Z,0.52
2023-04-08T06:49:52.968Z,0.57
2023-04-08T06:50:59.595Z,0.63
2023-04-08T06:52:01.836Z,0.40
2023-04-08T06:53:03.643Z,0.40
2023-04-08T06:54:05.392Z,0.32
2023-04-08T06:55:07.409Z,0.50
2023-04-08T06:56:09.287Z,0.30
2023-04-08T06:57:11.904Z,0.30
2023-04-08T06:58:13.718Z,0.40
2023-04-08T06:59:15.615Z,0.40
2023-04-08T07:00:17.750Z,0.60
2023-04-08T07:01:19.552Z,0.50
2023-04-08T07:02:22.716Z,0.30
2023-04-08T07:03:24.996Z,0.40
2023-04-08T07:04:27.032Z,0.30
2023-04-08T07:05:28.855Z,0.60
2023-04-08T07:06:30.762Z,0.47
2023-04-08T07:07:32.528Z,0.30
2023-04-08T07:08:34.415Z,0.80
2023-04-08T07:09:37.005Z,0.80
2023-04-08T07:10:38.888Z,0.57
2023-04-08T07:11:41.029Z,0.43
2023-04-08T07:12:42.816Z,0.60
2023-04-08T07:13:44.603Z,0.50
2023-04-08T07:14:46.454Z,0.60
2023-04-08T07:15:48.351Z,0.35
2023-04-08T07:16:50.433Z,0.35
2023-04-08T07:17:52.399Z,0.50
2023-04-08T07:18:54.361Z,0.60
2023-04-08T07:19:57.108Z,0.65
2023-04-08T07:21:00.975Z,0.60
2023-04-08T07:22:02.737Z,0.50
2023-04-08T07:23:05.159Z,1.27
2023-04-08T07:24:07.310Z,0.85
2023-04-08T07:25:09.661Z,0.50
2023-04-08T07:26:11.556Z,0.63
2023-04-08T07:27:13.302Z,0.60
2023-04-08T07:28:15.304Z,0.60
2023-04-08T07:29:17.122Z,0.45
2023-04-08T07:30:19.398Z,0.70
2023-04-08T07:31:21.447Z,0.63
2023-04-08T07:32:23.769Z,0.60
2023-04-08T07:33:26.539Z,0.50
2023-04-08T07:34:28.349Z,0.50
2023-04-08T07:35:32.099Z,0.50
2023-04-08T07:36:33.957Z,0.45
2023-04-08T07:37:35.811Z,0.40
2023-04-08T07:38:38.636Z,0.30
2023-04-08T07:39:40.544Z,0.40
2023-04-08T07:40:42.341Z,0.45
2023-04-08T07:41:44.220Z,0.50
2023-04-08T07:42:46.081Z,0.43
2023-04-08T07:43:48.029Z,0.50
2023-04-08T07:44:49.834Z,0.50
2023-04-08T07:45:51.688Z,0.82
2023-04-08T07:46:53.495Z,0.30
2023-04-08T07:47:55.720Z,0.77
2023-04-08T07:48:57.540Z,0.32
2023-04-08T07:49:59.387Z,0.60
2023-04-08T07:51:11.026Z,0.60
2023-04-08T07:52:13.384Z,0.68
2023-04-08T07:53:15.916Z,0.50
2023-04-08T07:54:17.900Z,0.57
2023-04-08T07:55:19.762Z,0.57
2023-04-08T07:56:22.482Z,0.50
2023-04-08T07:57:24.578Z,0.60
2023-04-08T07:58:26.559Z,0.55
2023-04-08T07:59:29.239Z,0.77
2023-04-08T08:00:33.173Z,0.95
2023-04-08T08:01:35.976Z,0.30
2023-04-08T08:02:37.941Z,0.50
2023-04-08T08:03:39.898Z,0.70
2023-04-08T08:04:41.914Z,0.45
2023-04-08T08:05:44.050Z,0.63
2023-04-08T08:06:47.652Z,0.60
2023-04-08T08:07:50.531Z,0.52
2023-04-08T08:08:52.358Z,0.47
2023-04-08T08:09:54.178Z,0.45
2023-04-08T08:10:56.076Z,0.65
2023-04-08T08:11:57.922Z,0.50
2023-04-08T08:12:59.775Z,0.60
2023-04-08T08:14:01.740Z,0.50
2023-04-08T08:15:04.163Z,0.47
2023-04-08T08:16:09.258Z,0.85
2023-04-08T08:17:12.794Z,0.68
2023-04-08T08:18:14.651Z,0.73
2023-04-08T08:19:16.650Z,0.50
2023-04-08T08:20:18.603Z,0.50
2023-04-08T08:21:20.552Z,0.60
2023-04-08T08:22:22.430Z,0.50
2023-04-08T08:23:24.185Z,0.75
2023-04-08T08:24:26.138Z,0.43
2023-04-08T08:25:28.072Z,0.45
2023-04-08T08:26:29.885Z,0.70
2023-04-08T08:27:31.820Z,0.77
2023-04-08T08:28:33.960Z,0.68
2023-04-08T08:29:37.135Z,0.70
2023-04-08T08:30:39.145Z,0.63
2023-04-08T08:31:41.123Z,0.55
2023-04-08T08:32:43.077Z,0.57
2023-04-08T08:33:44.869Z,0.57
2023-04-08T08:34:46.728Z,0.52
2023-04-08T08:35:48.700Z,0.77
2023-04-08T08:36:51.090Z,0.50
2023-04-08T08:37:52.878Z,0.65
2023-04-08T08:38:54.920Z,0.50
2023-04-08T08:39:56.674Z,0.50
2023-04-08T08:40:59.243Z,0.40
2023-04-08T08:42:01.062Z,0.70
2023-04-08T08:43:03.019Z,0.60
2023-04-08T08:44:08.818Z,0.45
2023-04-08T08:45:11.021Z,0.60
2023-04-08T08:46:17.595Z,0.60
2023-04-08T08:47:19.450Z,0.47
2023-04-08T08:48:21.385Z,0.70
2023-04-08T08:49:23.932Z,0.63
2023-04-08T08:50:25.997Z,0.70
2023-04-08T08:51:29.719Z,0.57
2023-04-08T08:52:31.572Z,0.47
2023-04-08T08:53:35.870Z,0.60
2023-04-08T08:54:38.343Z,0.50
2023-04-08T08:56:05.459Z,0.55
2023-04-08T08:57:02.732Z,0.80
2023-04-08T08:58:04.898Z,0.50
2023-04-08T08:59:06.696Z,0.60
2023-04-08T09:00:09.154Z,0.45
2023-04-08T09:01:35.789Z,0.90
2023-04-08T09:02:37.902Z,0.70
2023-04-08T09:03:39.990Z,0.65
2023-04-08T09:04:57.548Z,0.50
2023-04-08T09:06:01.443Z,0.50
2023-04-08T09:07:11.105Z,0.65
2023-04-08T09:08:35.467Z,0.90
2023-04-08T09:09:51.328Z,0.70
2023-04-08T09:10:54.533Z,0.70
2023-04-08T09:12:04.659Z,0.60
2023-04-08T09:13:06.589Z,0.70
2023-04-08T09:14:22.467Z,0.57
2023-04-08T09:15:24.333Z,0.70
2023-04-08T09:16:26.968Z,0.73
2023-04-08T09:17:39.824Z,0.73
2023-04-08T09:18:44.712Z,0.82
2023-04-08T09:20:09.768Z,0.57
2023-04-08T09:21:19.393Z,0.60
2023-04-08T09:22:21.310Z,0.70
2023-04-08T09:23:23.140Z,0.93
2023-04-08T09:24:30.439Z,0.77
2023-04-08T09:25:34.041Z,0.95
2023-04-08T09:26:37.690Z,0.82
2023-04-08T09:27:39.588Z,0.80
2023-04-08T09:28:43.049Z,0.80
2023-04-08T09:29:44.866Z,1.00
2023-04-08T09:30:47.026Z,1.08
2023-04-08T09:31:54.566Z,1.00
2023-04-08T09:32:58.039Z,0.90
2023-04-08T09:34:17.532Z,0.75
2023-04-08T09:35:20.530Z,1.30
2023-04-08T09:36:22.944Z,1.10
2023-04-08T09:37:24.721Z,1.10
2023-04-08T09:38:27.309Z,1.50
2023-04-08T09:39:29.147Z,1.30
2023-04-08T09:40:35.954Z,1.27
2023-04-08T09:41:39.492Z,1.30
2023-04-08T09:42:45.237Z,1.60
2023-04-08T09:43:56.925Z,1.60
2023-04-08T09:45:01.064Z,1.80
2023-04-08T09:46:06.171Z,1.67
2023-04-08T09:47:19.115Z,1.60
2023-04-08T09:48:30.779Z,1.73
2023-04-08T09:49:44.910Z,1.67
2023-04-08T09:50:51.210Z,2.05
2023-04-08T09:52:04.083Z,1.70
2023-04-08T09:53:15.723Z,1.55
2023-04-08T09:54:23.269Z,1.63
2023-04-08T09:55:28.348Z,1.10
2023-04-08T09:56:36.267Z,1.70
2023-04-08T09:57:51.558Z,1.30
2023-04-08T09:58:59.389Z,1.20
2023-04-08T10:00:09.081Z,1.50
2023-04-08T10:01:25.039Z,1.65
2023-04-08T10:02:33.492Z,1.30
2023-04-08T10:03:50.334Z,1.48
2023-04-08T10:04:54.593Z,1.60
2023-04-08T10:05:58.634Z,1.50
2023-04-08T10:07:06.553Z,2.13
2023-04-08T10:08:08.620Z,1.60
2023-04-08T10:09:11.400Z,1.40
2023-04-08T10:10:13.432Z,1.50
2023-04-08T10:11:16.681Z,1.65
2023-04-08T10:12:19.136Z,1.90
2023-04-08T10:13:21.515Z,1.55
2023-04-08T10:14:23.318Z,1.73
2023-04-08T10:15:32.504Z,1.83
2023-04-08T10:16:34.593Z,1.98
2023-04-08T10:17:37.035Z,1.65
2023-04-08T10:18:39.554Z,1.90
2023-04-08T10:19:42.053Z,2.00
2023-04-08T10:20:45.951Z,1.60
2023-04-08T10:21:51.035Z,1.88
2023-04-08T10:22:52.885Z,1.75
2023-04-08T10:24:06.445Z,1.88
2023-04-08T10:25:17.602Z,1.70
2023-04-08T10:26:42.306Z,1.70
2023-04-08T10:27:45.441Z,1.80
2023-04-08T10:28:47.228Z,1.98
2023-04-08T10:29:49.053Z,1.75
2023-04-08T10:30:55.680Z,1.70
2023-04-08T10:31:57.876Z,1.75
2023-04-08T10:33:00.912Z,1.77
2023-04-08T10:34:19.324Z,1.85
2023-04-08T10:35:30.612Z,1.50
2023-04-08T10:36:32.801Z,1.30
2023-04-08T10:37:34.679Z,1.33
2023-04-08T10:38:36.554Z,1.50
2023-04-08T10:39:38.810Z,1.83
2023-04-08T10:40:42.820Z,1.60
2023-04-08T10:41:48.756Z,1.95
2023-04-08T10:42:57.746Z,2.10
2023-04-08T10:43:59.520Z,1.73
2023-04-08T10:45:02.254Z,1.67
2023-04-08T10:46:05.089Z,1.55
2023-04-08T10:47:07.640Z,1.95
2023-04-08T10:48:15.486Z,1.88
2023-04-08T10:49:17.773Z,1.60
2023-04-08T10:50:21.408Z,1.95
2023-04-08T10:51:23.852Z,1.60
2023-04-08T10:52:27.596Z,1.40
2023-04-08T10:53:34.684Z,1.60
2023-04-08T10:54:38.526Z,1.50
2023-04-08T10:55:40.417Z,1.30
2023-04-08T10:56:50.444Z,1.50
2023-04-08T10:57:53.340Z,1.50
2023-04-08T10:58:56.613Z,1.80
2023-04-08T10:59:58.548Z,1.50
2023-04-08T11:01:07.914Z,1.70
2023-04-08T11:02:14.722Z,1.92
2023-04-08T11:03:17.057Z,1.42
2023-04-08T11:04:19.752Z,1.77
2023-04-08T11:05:23.471Z,1.48
2023-04-08T11:06:25.695Z,1.77
2023-04-08T11:07:27.802Z,1.88
2023-04-08T11:08:32.924Z,1.60
2023-04-08T11:09:35.416Z,1.50
2023-04-08T11:10:39.058Z,1.58
2023-04-08T11:11:45.784Z,1.42
2023-04-08T11:12:48.205Z,1.40
2023-04-08T11:13:54.016Z,1.77
2023-04-08T11:14:56.291Z,1.60
2023-04-08T11:16:00.512Z,1.60
2023-04-08T11:17:05.890Z,1.38
2023-04-08T11:18:09.202Z,1.40
2023-04-08T11:19:13.976Z,1.30
2023-04-08T11:20:16.102Z,1.42
2023-04-08T11:21:18.022Z,1.42
2023-04-08T11:22:21.201Z,1.52
2023-04-08T11:23:25.343Z,1.30
2023-04-08T11:24:27.324Z,1.27
2023-04-08T11:25:29.800Z,1.40
2023-04-08T11:26:31.875Z,1.40
2023-04-08T11:27:34.526Z,1.40
2023-04-08T11:28:36.736Z,1.35
2023-04-08T11:29:38.773Z,1.27
2023-04-08T11:30:41.780Z,1.45
2023-04-08T11:31:44.226Z,1.17
2023-04-08T11:32:46.610Z,1.50
2023-04-08T11:33:50.327Z,1.40
2023-04-08T11:34:53.500Z,1.10
2023-04-08T11:35:55.525Z,1.15
2023-04-08T11:36:58.708Z,1.52
2023-04-08T11:38:01.056Z,1.42
2023-04-08T11:39:07.686Z,1.50
2023-04-08T11:40:13.412Z,1.25
2023-04-08T11:41:16.332Z,1.30
2023-04-08T11:42:31.918Z,1.40
2023-04-08T11:43:33.823Z,1.20
2023-04-08T11:44:35.786Z,1.20
2023-04-08T11:45:42.521Z,1.25
2023-04-08T11:46:57.379Z,1.40
2023-04-08T11:47:59.381Z,1.20
2023-04-08T11:49:06.673Z,1.05
2023-04-08T11:50:09.512Z,1.10
2023-04-08T11:51:12.556Z,1.33
2023-04-08T11:52:14.854Z,1.40
2023-04-08T11:53:21.478Z,1.30
2023-04-08T11:54:30.328Z,1.30
2023-04-08T11:55:33.453Z,1.05
2023-04-08T11:56:47.129Z,0.98
2023-04-08T11:57:49.007Z,1.40
2023-04-08T11:58:52.074Z,1.20
2023-04-08T11:59:53.850Z,1.10
2023-04-08T12:00:55.633Z,1.00
2023-04-08T12:01:57.718Z,1.25
2023-04-08T12:02:59.726Z,1.00
2023-04-08T12:04:02.544Z,1.23
2023-04-08T12:05:04.892Z,1.20
2023-04-08T12:06:08.850Z,0.90
2023-04-08T12:07:11.005Z,1.20
2023-04-08T12:08:12.829Z,1.00
2023-04-08T12:09:14.778Z,1.05
2023-04-08T12:10:16.700Z,1.17
2023-04-08T12:11:20.171Z,1.20
2023-04-08T12:12:22.157Z,1.23
2023-04-08T12:13:23.964Z,1.08
2023-04-08T12:14:28.306Z,1.30
2023-04-08T12:15:30.330Z,1.00
2023-04-08T12:16:32.153Z,0.95
2023-04-08T12:17:34.608Z,0.98
2023-04-08T12:18:37.527Z,0.82
2023-04-08T12:19:39.309Z,1.08
2023-04-08T12:20:41.240Z,0.85
2023-04-08T12:21:43.001Z,1.02
2023-04-08T12:22:44.859Z,0.90
2023-04-08T12:23:46.704Z,0.93
2023-04-08T12:24:48.577Z,1.00
2023-04-08T12:25:50.396Z,0.77
2023-04-08T12:26:52.163Z,0.98
2023-04-08T12:27:54.101Z,1.00
2023-04-08T12:28:55.933Z,1.10
2023-04-08T12:29:57.739Z,0.75
2023-04-08T12:30:59.545Z,0.80
2023-04-08T12:32:02.570Z,0.90
2023-04-08T12:33:04.460Z,0.90
2023-04-08T12:34:07.126Z,0.90
2023-04-08T12:35:09.119Z,0.90
2023-04-08T12:36:13.384Z,0.68
2023-04-08T12:37:15.573Z,0.88
2023-04-08T12:38:17.689Z,0.70
2023-04-08T12:39:19.500Z,0.93
2023-04-08T12:40:21.382Z,0.82
2023-04-08T12:41:23.206Z,1.08
2023-04-08T12:42:25.112Z,0.70
2023-04-08T12:43:26.892Z,0.85
2023-04-08T12:44:28.655Z,0.70
2023-04-08T12:45:31.015Z,0.82
2023-04-08T12:46:32.922Z,0.77
2023-04-08T12:47:34.869Z,0.98
2023-04-08T12:48:36.934Z,0.88
2023-04-08T12:50:43.509Z,0.52
2023-04-08T12:51:45.847Z,0.90
2023-04-08T12:52:47.622Z,0.75
2023-04-08T12:53:49.409Z,0.95
2023-04-08T12:54:51.296Z,0.70
2023-04-08T12:55:57.130Z,0.80
2023-04-08T12:56:58.978Z,0.60
2023-04-08T12:58:01.134Z,0.90
2023-04-08T12:59:02.973Z,0.80
2023-04-08T13:00:05.630Z,0.70
2023-04-08T13:01:07.532Z,0.70
2023-04-08T13:02:09.584Z,0.70
2023-04-08T13:03:11.400Z,0.80
2023-04-08T13:04:13.458Z,0.60
2023-04-08T13:05:17.054Z,0.65
2023-04-08T13:06:18.906Z,0.68
2023-04-08T13:07:20.857Z,0.80
2023-04-08T13:08:23.311Z,0.98
2023-04-08T13:09:25.149Z,0.73
2023-04-08T13:10:27.289Z,0.85
2023-04-08T13:11:29.066Z,0.70
2023-04-08T13:12:32.114Z,0.50
2023-04-08T13:13:34.155Z,0.60
2023-04-08T13:14:36.126Z,0.68
2023-04-08T13:15:38.137Z,0.90
2023-04-08T13:16:40.171Z,0.55
2023-04-08T13:17:42.349Z,0.65
2023-04-08T13:18:44.164Z,0.85
2023-04-08T13:19:46.127Z,0.52
2023-04-08T13:20:47.906Z,0.60
2023-04-08T13:21:49.686Z,0.57
2023-04-08T13:22:52.967Z,0.50
2023-04-08T13:23:54.787Z,0.50
2023-04-08T13:24:57.000Z,0.80
2023-04-08T13:25:58.852Z,0.70
2023-04-08T13:27:01.868Z,0.60
2023-04-08T13:28:03.760Z,0.70
2023-04-08T13:29:05.798Z,0.70
2023-04-08T13:30:08.379Z,0.60
2023-04-08T13:31:10.440Z,0.60
2023-04-08T13:32:12.538Z,0.73
2023-04-08T13:33:14.437Z,0.50
2023-04-08T13:34:16.312Z,0.70
2023-04-08T13:35:18.195Z,0.38
2023-04-08T13:36:19.979Z,0.90
2023-04-08T13:37:22.101Z,0.50
2023-04-08T13:38:24.186Z,0.60
2023-04-08T13:39:26.151Z,0.57
2023-04-08T13:40:28.071Z,0.68
2023-04-08T13:41:30.105Z,0.65
2023-04-08T13:42:32.823Z,0.45
2023-04-08T13:43:34.604Z,0.57
2023-04-08T13:44:36.699Z,0.68
2023-04-08T13:45:38.957Z,0.50
2023-04-08T13:46:40.930Z,0.70
2023-04-08T13:47:42.740Z,0.60
2023-04-08T13:48:44.572Z,0.68
2023-04-08T13:49:46.854Z,0.70
2023-04-08T13:50:49.471Z,0.57
2023-04-08T13:51:51.375Z,0.50
2023-04-08T13:52:53.185Z,0.65
2023-04-08T13:53:55.200Z,0.55
2023-04-08T13:54:57.253Z,0.50
2023-04-08T13:55:59.272Z,0.70
2023-04-08T13:57:01.496Z,0.50
2023-04-08T13:58:06.612Z,0.68
2023-04-08T13:59:13.328Z,0.77
2023-04-08T14:00:15.569Z,0.60
2023-04-08T14:01:17.562Z,0.70
2023-04-08T14:02:19.405Z,0.70
2023-04-08T14:03:21.336Z,0.45
2023-04-08T14:04:23.846Z,0.60
2023-04-08T14:05:25.739Z,0.40